createdAt,value
2022-11-23T00:00:36.002Z,1.50
2022-11-23T00:03:12.517Z,2.17
2022-11-23T00:05:45.068Z,1.02
2022-11-23T00:08:17.555Z,1.55
2022-11-23T00:10:50.056Z,0.95
2022-11-23T00:13:22.564Z,1.02
2022-11-23T00:15:55.112Z,1.20
2022-11-23T00:18:27.629Z,0.77
2022-11-23T00:21:00.199Z,1.20
2022-11-23T00:23:32.659Z,1.63
2022-11-23T00:26:06.378Z,1.10
2022-11-23T00:28:40.828Z,1.05
2022-11-23T00:31:17.100Z,1.10
2022-11-23T00:33:53.570Z,1.20
2022-11-23T00:36:27.767Z,1.48
2022-11-23T00:39:00.337Z,0.63
2022-11-23T00:41:32.876Z,0.77
2022-11-23T00:44:05.359Z,1.08
2022-11-23T00:46:37.872Z,0.70
2022-11-23T00:49:10.704Z,1.05
2022-11-23T00:51:43.415Z,0.97
2022-11-23T00:54:16.120Z,0.70
2022-11-23T00:56:48.578Z,0.98
2022-11-23T00:59:21.074Z,0.90
2022-11-23T01:01:53.626Z,1.27
2022-11-23T01:04:26.296Z,0.80
2022-11-23T01:07:03.478Z,0.70
2022-11-23T01:09:37.571Z,1.05
2022-11-23T01:12:11.794Z,0.80
2022-11-23T01:14:44.338Z,0.90
2022-11-23T01:17:16.834Z,1.10
2022-11-23T01:19:49.361Z,0.90
2022-11-23T01:22:22.022Z,1.00
2022-11-23T01:24:55.323Z,1.30
2022-11-23T01:27:27.891Z,1.40
2022-11-23T01:30:00.571Z,0.90
2022-11-23T01:32:33.124Z,1.10
2022-11-23T01:35:06.099Z,1.00
2022-11-23T01:37:38.646Z,1.05
2022-11-23T01:40:11.938Z,0.80
2022-11-23T01:42:56.701Z,0.90
2022-11-23T01:45:32.098Z,0.95
2022-11-23T01:48:10.320Z,1.52
2022-11-23T01:50:44.932Z,1.08
2022-11-23T01:53:19.210Z,0.98
2022-11-23T01:55:58.972Z,1.13
2022-11-23T01:58:35.493Z,0.75
2022-11-23T02:01:09.985Z,0.80
2022-11-23T02:03:44.962Z,1.00
2022-11-23T02:06:19.175Z,1.73
2022-11-23T02:08:52.896Z,0.90
2022-11-23T02:11:25.933Z,1.25
2022-11-23T02:13:58.633Z,1.20
2022-11-23T02:16:31.678Z,1.08
2022-11-23T02:19:08.563Z,0.85
2022-11-23T02:21:42.726Z,1.20
2022-11-23T02:24:37.518Z,1.02
2022-11-23T02:27:09.982Z,0.85
2022-11-23T02:29:42.862Z,1.00
2022-11-23T02:32:25.059Z,1.05
2022-11-23T02:35:01.483Z,1.17
2022-11-23T02:37:34.029Z,1.30
2022-11-23T02:40:16.566Z,0.93
2022-11-23T02:45:39.780Z,0.95
2022-11-23T02:48:12.326Z,0.80
2022-11-23T02:50:45.039Z,0.90
2022-11-23T02:53:17.764Z,0.80
2022-11-23T02:55:50.297Z,1.08
2022-11-23T02:58:23.491Z,1.10
2022-11-23T03:00:57.082Z,0.77
2022-11-23T03:03:29.618Z,1.00
2022-11-23T03:06:02.211Z,1.05
2022-11-23T03:08:38.023Z,0.88
2022-11-23T03:11:10.743Z,1.17
2022-11-23T03:13:44.358Z,1.00
2022-11-23T03:16:17.237Z,1.15
2022-11-23T03:18:53.209Z,0.88
2022-11-23T03:21:26.167Z,0.80
2022-11-23T03:23:58.870Z,0.70
2022-11-23T03:26:31.547Z,0.80
2022-11-23T03:29:13.202Z,0.98
2022-11-23T03:31:47.197Z,0.77
2022-11-23T03:34:21.513Z,0.63
2022-11-23T03:36:54.348Z,0.98
2022-11-23T03:39:27.036Z,0.75
2022-11-23T03:42:22.387Z,0.90
2022-11-23T03:47:28.098Z,1.13
2022-11-23T03:50:01.125Z,1.00
2022-11-23T03:52:36.212Z,1.20
2022-11-23T03:55:09.006Z,0.80
2022-11-23T03:57:41.990Z,0.90
2022-11-23T04:00:16.535Z,1.33
2022-11-23T04:02:51.082Z,0.88
2022-11-23T04:05:41.942Z,0.95
2022-11-23T04:08:40.636Z,1.15
2022-11-23T04:11:19.356Z,1.00
2022-11-23T04:13:54.449Z,1.20
2022-11-23T04:16:27.069Z,1.15
2022-11-23T04:18:59.659Z,1.13
2022-11-23T04:21:32.831Z,1.00
2022-11-23T04:24:05.600Z,1.63
2022-11-23T04:26:41.399Z,1.20
2022-11-23T04:29:15.743Z,1.30
2022-11-23T04:31:53.299Z,1.10
2022-11-23T04:34:27.295Z,1.20
2022-11-23T04:37:08.925Z,1.20
2022-11-23T04:39:45.886Z,1.55
2022-11-23T04:42:41.127Z,1.48
2022-11-23T04:45:13.921Z,1.90
2022-11-23T04:47:48.139Z,2.03
2022-11-23T04:50:22.120Z,2.67
2022-11-23T04:52:58.803Z,3.00
2022-11-23T04:55:40.154Z,2.67
2022-11-23T04:58:12.722Z,3.17
2022-11-23T05:00:45.720Z,2.38
2022-11-23T05:03:19.536Z,2.40
2022-11-23T05:05:52.125Z,2.00
2022-11-23T05:08:25.176Z,2.35
2022-11-23T05:11:22.243Z,1.95
2022-11-23T05:13:55.833Z,1.67
2022-11-23T05:16:28.609Z,1.50
2022-11-23T05:19:01.271Z,1.30
2022-11-23T05:21:33.873Z,2.10
2022-11-23T05:24:06.800Z,1.65
2022-11-23T05:26:39.718Z,1.60
2022-11-23T05:29:12.261Z,1.58
2022-11-23T05:31:44.962Z,1.98
2022-11-23T05:34:19.607Z,1.45
2022-11-23T05:36:52.744Z,1.67
2022-11-23T05:39:25.261Z,1.40
2022-11-23T05:41:59.155Z,1.58
2022-11-23T05:44:42.932Z,1.50
2022-11-23T05:47:24.356Z,1.10
2022-11-23T05:49:57.209Z,1.58
2022-11-23T05:52:33.356Z,1.63
2022-11-23T05:55:06.023Z,1.42
2022-11-23T05:57:38.590Z,1.67
2022-11-23T06:00:12.500Z,1.48
2022-11-23T06:03:02.555Z,1.30
2022-11-23T06:05:37.136Z,1.50
2022-11-23T06:08:09.664Z,1.30
2022-11-23T06:10:44.944Z,1.40
2022-11-23T06:13:17.592Z,1.40
2022-11-23T06:18:29.393Z,1.60
2022-11-23T06:21:02.331Z,1.67
2022-11-23T06:23:34.926Z,1.95
2022-11-23T06:26:07.515Z,2.15
2022-11-23T06:28:41.482Z,2.05
2022-11-23T06:31:14.875Z,2.28
2022-11-23T06:33:47.569Z,2.30
2022-11-23T06:36:21.566Z,1.83
2022-11-23T06:38:57.630Z,2.33
2022-11-23T06:41:32.709Z,2.60
2022-11-23T06:44:07.649Z,2.03
2022-11-23T06:46:48.802Z,2.80
2022-11-23T06:49:22.003Z,3.03
2022-11-23T06:52:14.035Z,2.08
2022-11-23T06:54:47.204Z,2.20
2022-11-23T06:57:20.719Z,2.50
2022-11-23T06:59:53.715Z,2.38
2022-11-23T07:02:32.216Z,2.22
2022-11-23T07:07:38.030Z,2.05
2022-11-23T07:10:17.251Z,2.10
2022-11-23T07:12:52.190Z,3.85
2022-11-23T07:15:26.826Z,3.58
2022-11-23T07:17:59.734Z,3.10
2022-11-23T07:20:33.326Z,3.33
2022-11-23T07:23:08.171Z,2.88
2022-11-23T07:25:40.781Z,3.83
2022-11-23T07:28:14.599Z,2.90
2022-11-23T07:30:50.254Z,3.25
2022-11-23T07:33:24.001Z,3.28
2022-11-23T07:35:56.969Z,3.28
2022-11-23T07:38:30.440Z,2.08
2022-11-23T07:41:05.181Z,1.63
2022-11-23T07:44:00.997Z,2.47
2022-11-23T07:49:05.912Z,1.75
2022-11-23T07:51:38.417Z,1.60
2022-11-23T07:54:10.920Z,1.58
2022-11-23T07:56:43.414Z,1.40
2022-11-23T07:59:15.894Z,1.85
2022-11-23T08:01:52.067Z,1.70
2022-11-23T08:04:27.107Z,1.75
2022-11-23T08:07:01.027Z,1.38
2022-11-23T08:09:33.736Z,1.50
2022-11-23T08:12:06.961Z,1.70
2022-11-23T08:17:11.911Z,1.83
2022-11-23T08:19:44.442Z,1.85
2022-11-23T08:22:17.123Z,2.13
2022-11-23T08:24:49.739Z,2.25
2022-11-23T08:27:22.311Z,1.90
2022-11-23T08:29:54.979Z,1.40
2022-11-23T08:32:27.580Z,1.88
2022-11-23T08:35:00.197Z,2.55
2022-11-23T08:37:32.798Z,2.80
2022-11-23T08:40:05.806Z,3.42
2022-11-23T08:42:38.358Z,1.92
2022-11-23T08:45:11.315Z,3.60
2022-11-23T08:47:43.837Z,3.90
2022-11-23T08:50:16.723Z,4.82
2022-11-23T08:52:54.610Z,3.05
2022-11-23T08:55:29.309Z,2.80
2022-11-23T08:58:01.882Z,2.58
2022-11-23T09:00:34.877Z,2.63
2022-11-23T09:03:10.140Z,2.53
2022-11-23T09:05:42.735Z,2.90
2022-11-23T09:08:16.756Z,2.92
2022-11-23T09:10:49.294Z,3.58
2022-11-23T09:13:21.850Z,3.88
2022-11-23T09:16:01.917Z,3.17
2022-11-23T09:18:36.044Z,2.70
2022-11-23T09:21:08.650Z,2.45
2022-11-23T09:23:41.583Z,2.55
2022-11-23T09:26:14.151Z,1.80
2022-11-23T09:28:46.675Z,1.88
2022-11-23T09:31:19.175Z,2.20
2022-11-23T09:33:54.165Z,2.90
2022-11-23T09:36:26.680Z,2.45
2022-11-23T09:38:59.187Z,2.60
2022-11-23T09:42:01.719Z,3.25
2022-11-23T09:44:54.563Z,2.58
2022-11-23T09:47:48.483Z,2.22
2022-11-23T09:50:47.732Z,1.90
2022-11-23T09:53:38.626Z,2.00
2022-11-23T09:56:19.095Z,2.47
2022-11-23T09:58:56.075Z,2.28
2022-11-23T10:01:30.642Z,2.45
2022-11-23T10:04:05.403Z,2.10
2022-11-23T10:06:40.893Z,3.30
2022-11-23T10:09:25.741Z,2.85
2022-11-23T10:12:24.840Z,2.30
2022-11-23T10:15:05.177Z,1.92
2022-11-23T10:18:01.841Z,2.30
2022-11-23T10:20:42.976Z,1.98
2022-11-23T10:23:38.279Z,1.70
2022-11-23T10:26:18.606Z,1.92
2022-11-23T10:28:51.512Z,1.88
2022-11-23T10:31:26.264Z,1.65
2022-11-23T10:34:24.228Z,1.65
2022-11-23T10:36:57.522Z,1.38
2022-11-23T10:39:31.911Z,1.83
2022-11-23T10:42:33.453Z,2.08
2022-11-23T10:45:06.609Z,1.80
2022-11-23T10:50:30.390Z,2.30
2022-11-23T10:53:24.023Z,2.47
2022-11-23T10:56:01.760Z,2.38
2022-11-23T10:58:43.322Z,2.63
2022-11-23T11:01:20.504Z,2.13
2022-11-23T11:04:00.184Z,1.80
2022-11-23T11:06:36.355Z,2.05
2022-11-23T11:09:20.927Z,1.77
2022-11-23T11:11:55.096Z,1.45
2022-11-23T11:14:31.345Z,1.50
2022-11-23T11:17:27.605Z,1.88
2022-11-23T11:20:22.319Z,1.77
2022-11-23T11:22:57.382Z,1.30
2022-11-23T11:25:39.346Z,1.02
2022-11-23T11:28:26.729Z,1.52
2022-11-23T11:31:14.073Z,1.35
2022-11-23T11:34:10.666Z,1.38
2022-11-23T11:36:54.728Z,1.50
2022-11-23T11:39:46.162Z,1.60
2022-11-23T11:42:50.781Z,1.70
2022-11-23T11:45:31.825Z,1.85
2022-11-23T11:48:17.678Z,1.80
2022-11-23T11:51:31.275Z,1.33
2022-11-23T11:54:13.864Z,2.55
2022-11-23T11:57:20.280Z,1.98
2022-11-23T11:59:58.286Z,1.73
2022-11-23T12:03:06.151Z,1.27
2022-11-23T12:05:53.057Z,1.85
2022-11-23T12:08:36.188Z,1.70
2022-11-23T12:11:12.128Z,2.40
2022-11-23T12:13:47.199Z,1.67
2022-11-23T12:16:25.301Z,1.40
2022-11-23T12:19:19.416Z,1.90
2022-11-23T12:21:55.750Z,1.67
2022-11-23T12:24:46.655Z,1.92
2022-11-23T12:27:49.444Z,2.97
2022-11-23T12:30:23.504Z,2.08
2022-11-23T12:33:26.364Z,1.70
2022-11-23T12:36:30.065Z,2.05
2022-11-23T12:39:39.637Z,2.90
2022-11-23T12:42:44.850Z,1.55
2022-11-23T12:45:29.373Z,2.30
2022-11-23T12:48:34.328Z,2.10
2022-11-23T12:51:30.761Z,1.67
2022-11-23T12:54:27.069Z,2.70
2022-11-23T12:57:10.434Z,1.40
2022-11-23T13:03:02.415Z,1.50
2022-11-23T13:05:53.060Z,1.92
2022-11-23T13:09:06.788Z,1.50
2022-11-23T13:12:13.384Z,1.67
2022-11-23T13:15:06.585Z,1.20
2022-11-23T13:17:57.844Z,1.45
2022-11-23T13:20:41.703Z,1.90
2022-11-23T13:23:14.532Z,3.22
2022-11-23T13:26:18.462Z,1.98
2022-11-23T13:28:53.676Z,2.10
2022-11-23T13:31:27.804Z,1.73
2022-11-23T13:34:24.559Z,1.95
2022-11-23T13:37:16.822Z,1.58
2022-11-23T13:39:58.598Z,2.22
2022-11-23T13:42:34.118Z,2.40
2022-11-23T13:45:25.967Z,2.20
2022-11-23T13:48:19.381Z,2.85
2022-11-23T13:50:58.865Z,5.03
2022-11-23T13:53:35.427Z,3.28
2022-11-23T13:56:21.627Z,2.50
2022-11-23T13:58:58.523Z,1.70
2022-11-23T14:02:07.988Z,1.83
2022-11-23T14:04:42.263Z,1.30
2022-11-23T14:07:23.998Z,1.38
2022-11-23T14:10:08.431Z,1.60
2022-11-23T14:12:57.161Z,2.15
2022-11-23T14:15:58.756Z,2.80
2022-11-23T14:18:46.278Z,2.55
2022-11-23T14:22:07.763Z,1.60
2022-11-23T14:25:04.574Z,2.05
2022-11-23T14:27:47.522Z,2.15
2022-11-23T14:33:41.361Z,1.80
2022-11-23T14:36:20.285Z,2.10
2022-11-23T14:39:11.134Z,2.85
2022-11-23T14:41:46.102Z,1.50
2022-11-23T14:44:24.660Z,1.42
2022-11-23T14:47:05.823Z,1.73
2022-11-23T14:49:51.447Z,1.85
2022-11-23T14:52:33.555Z,1.67
2022-11-23T14:55:06.922Z,1.38
2022-11-23T14:57:45.965Z,1.60
2022-11-23T15:00:26.774Z,1.98
2022-11-23T15:03:27.178Z,1.50
2022-11-23T15:06:13.283Z,1.45
2022-11-23T15:09:14.902Z,1.13
2022-11-23T15:11:49.293Z,1.58
2022-11-23T15:14:28.579Z,1.95
2022-11-23T15:17:16.042Z,1.40
2022-11-23T15:19:59.713Z,1.85
2022-11-23T15:22:33.924Z,1.45
2022-11-23T15:25:08.900Z,1.17
2022-11-23T15:27:42.352Z,1.10
2022-11-23T15:30:31.215Z,1.42
2022-11-23T15:33:11.595Z,1.40
2022-11-23T15:35:44.391Z,1.40
2022-11-23T15:38:23.441Z,5.22
2022-11-23T15:41:05.374Z,3.40
2022-11-23T15:43:51.294Z,2.63
2022-11-23T15:46:35.181Z,3.08
2022-11-23T15:49:14.415Z,1.80
2022-11-23T15:51:47.441Z,1.58
2022-11-23T15:54:23.869Z,1.42
2022-11-23T15:56:58.875Z,1.90
2022-11-23T15:59:41.098Z,4.20
2022-11-23T16:02:25.329Z,4.78
2022-11-23T16:05:19.407Z,2.40
2022-11-23T16:07:56.635Z,1.70
2022-11-23T16:10:35.136Z,2.50
2022-11-23T16:13:27.561Z,4.60
2022-11-23T16:16:01.720Z,2.80
2022-11-23T16:18:34.501Z,3.53
2022-11-23T16:21:07.268Z,3.13
2022-11-23T16:23:50.532Z,3.17
2022-11-23T16:26:33.314Z,3.80
2022-11-23T16:29:06.154Z,3.72
2022-11-23T16:31:41.267Z,3.80
2022-11-23T16:34:17.152Z,2.28
2022-11-23T16:36:49.851Z,2.63
2022-11-23T16:39:27.829Z,3.67
2022-11-23T16:42:00.302Z,6.30
2022-11-23T16:44:36.221Z,4.75
2022-11-23T16:47:24.593Z,6.75
2022-11-23T16:49:57.551Z,5.10
2022-11-23T16:52:30.076Z,6.00
2022-11-23T16:55:02.710Z,7.15
2022-11-23T16:57:35.888Z,6.78
2022-11-23T17:02:45.602Z,6.45
2022-11-23T17:05:21.276Z,7.22
2022-11-23T17:07:53.918Z,6.35
2022-11-23T17:10:26.535Z,5.47
2022-11-23T17:12:59.202Z,2.85
2022-11-23T17:15:31.817Z,2.58
2022-11-23T17:18:04.854Z,2.65
2022-11-23T17:23:09.903Z,2.70
2022-11-23T17:25:42.504Z,3.10
2022-11-23T17:28:18.020Z,6.20
2022-11-23T17:30:51.010Z,4.05
2022-11-23T17:33:23.646Z,3.50
2022-11-23T17:35:59.034Z,4.63
2022-11-23T17:38:31.640Z,5.53
2022-11-23T17:41:08.042Z,5.93
2022-11-23T17:43:40.612Z,4.47
2022-11-23T17:46:20.161Z,3.30
2022-11-23T17:48:57.736Z,4.18
2022-11-23T17:51:30.465Z,3.00
2022-11-23T17:54:02.923Z,2.50
2022-11-23T17:56:35.869Z,2.72
2022-11-23T17:59:09.435Z,2.70
2022-11-23T18:01:42.124Z,5.15
2022-11-23T18:04:14.666Z,16.10
2022-11-23T18:06:47.218Z,17.02
2022-11-23T18:09:19.691Z,16.77
2022-11-23T18:11:52.275Z,6.55
2022-11-23T18:14:28.965Z,3.83
2022-11-23T18:17:01.704Z,4.13
2022-11-23T18:19:34.652Z,4.15
2022-11-23T18:24:39.815Z,4.38
2022-11-23T18:27:13.826Z,7.05
2022-11-23T18:29:46.329Z,8.00
2022-11-23T18:32:18.814Z,8.25
2022-11-23T18:34:51.405Z,7.63
2022-11-23T18:37:23.957Z,6.20
2022-11-23T18:39:56.817Z,4.32
2022-11-23T18:42:29.394Z,5.40
2022-11-23T18:45:01.853Z,3.35
2022-11-23T18:47:34.620Z,2.60
2022-11-23T18:50:07.752Z,5.60
2022-11-23T18:52:40.194Z,3.75
2022-11-23T18:55:12.950Z,4.47
2022-11-23T18:57:46.267Z,8.35
2022-11-23T19:00:19.405Z,9.40
2022-11-23T19:02:57.740Z,7.30
2022-11-23T19:05:33.804Z,4.90
2022-11-23T19:08:08.256Z,4.25
2022-11-23T19:10:40.741Z,3.53
2022-11-23T19:13:13.319Z,3.75
2022-11-23T19:15:45.871Z,5.25
2022-11-23T19:18:18.477Z,5.32
2022-11-23T19:20:51.069Z,5.63
2022-11-23T19:23:28.299Z,4.00
2022-11-23T19:26:03.312Z,3.47
2022-11-23T19:28:36.292Z,4.25
2022-11-23T19:31:18.025Z,4.35
2022-11-23T19:33:52.781Z,4.20
2022-11-23T19:36:26.550Z,3.97
2022-11-23T19:39:03.073Z,2.90
2022-11-23T19:41:35.701Z,2.90
2022-11-23T19:44:10.115Z,3.05
2022-11-23T19:46:42.745Z,3.60
2022-11-23T19:49:15.366Z,3.10
2022-11-23T19:51:51.264Z,3.83
2022-11-23T19:54:24.221Z,3.30
2022-11-23T19:56:56.777Z,4.22
2022-11-23T19:59:29.352Z,6.35
2022-11-23T20:02:01.933Z,5.60
2022-11-23T20:04:34.978Z,6.00
2022-11-23T20:07:07.552Z,6.43
2022-11-23T20:09:40.074Z,5.13
2022-11-23T20:12:12.669Z,4.93
2022-11-23T20:14:45.197Z,4.85
2022-11-23T20:17:17.813Z,5.22
2022-11-23T20:19:50.321Z,5.65
2022-11-23T20:22:22.883Z,5.45
2022-11-23T20:24:55.372Z,5.72
2022-11-23T20:27:27.977Z,6.45
2022-11-23T20:30:00.608Z,5.55
2022-11-23T20:32:33.118Z,5.75
2022-11-23T20:35:06.039Z,5.55
2022-11-23T20:37:38.559Z,6.18
2022-11-23T20:40:11.819Z,4.72
2022-11-23T20:42:44.364Z,5.30
2022-11-23T20:45:17.105Z,5.38
2022-11-23T20:47:54.054Z,5.07
2022-11-23T20:50:27.952Z,4.13
2022-11-23T20:53:02.605Z,4.78
2022-11-23T20:55:35.110Z,5.30
2022-11-23T20:58:08.036Z,5.00
2022-11-23T21:00:40.728Z,5.43
2022-11-23T21:03:13.366Z,5.63
2022-11-23T21:05:45.932Z,5.82
2022-11-23T21:08:27.889Z,5.47
2022-11-23T21:11:38.664Z,5.55
2022-11-23T21:14:32.003Z,4.82
2022-11-23T21:19:39.874Z,4.67
2022-11-23T21:22:14.119Z,3.90
2022-11-23T21:24:46.702Z,4.13
2022-11-23T21:27:26.338Z,3.58
2022-11-23T21:29:58.959Z,3.00
2022-11-23T21:32:31.677Z,2.80
2022-11-23T21:35:04.332Z,2.85
2022-11-23T21:37:36.803Z,2.78
2022-11-23T21:40:09.953Z,2.97
2022-11-23T21:42:44.944Z,3.65
2022-11-23T21:45:17.472Z,3.40
2022-11-23T21:47:50.862Z,2.63
2022-11-23T21:50:23.478Z,2.90
2022-11-23T21:52:56.164Z,2.47
2022-11-23T21:55:29.222Z,2.53
2022-11-23T21:58:01.661Z,2.60
2022-11-23T22:00:34.174Z,2.05
2022-11-23T22:03:06.703Z,2.33
2022-11-23T22:05:39.158Z,1.73
2022-11-23T22:08:28.698Z,1.85
2022-11-23T22:11:14.098Z,1.70
2022-11-23T22:13:46.725Z,1.75
2022-11-23T22:16:24.882Z,1.40
2022-11-23T22:18:58.358Z,1.40
2022-11-23T22:21:36.212Z,1.52
2022-11-23T22:24:13.291Z,1.55
2022-11-23T22:26:46.758Z,1.25
2022-11-23T22:29:19.385Z,1.50
2022-11-23T22:31:51.883Z,1.58
2022-11-23T22:34:24.598Z,1.88
2022-11-23T22:36:57.045Z,1.73
2022-11-23T22:39:29.586Z,2.17
2022-11-23T22:42:02.111Z,1.45
2022-11-23T22:44:34.753Z,1.40
2022-11-23T22:47:07.519Z,1.00
2022-11-23T22:49:39.938Z,1.40
2022-11-23T22:52:12.872Z,2.00
2022-11-23T22:54:45.375Z,1.73
2022-11-23T22:57:18.074Z,1.85
2022-11-23T22:59:53.334Z,1.77
2022-11-23T23:02:26.058Z,1.85
2022-11-23T23:04:58.658Z,2.08
2022-11-23T23:07:31.734Z,1.92
2022-11-23T23:12:37.137Z,1.70
2022-11-23T23:15:09.970Z,2.00
2022-11-23T23:17:42.464Z,1.55
2022-11-23T23:20:15.044Z,2.35
2022-11-23T23:22:48.380Z,1.92
2022-11-23T23:25:21.387Z,2.13
2022-11-23T23:27:53.815Z,2.72
2022-11-23T23:30:26.469Z,3.05
2022-11-23T23:33:00.196Z,2.40
2022-11-23T23:35:32.700Z,2.30
2022-11-23T23:38:05.361Z,2.53
2022-11-23T23:40:37.873Z,2.67
2022-11-23T23:43:10.421Z,2.10
2022-11-23T23:45:43.109Z,2.75
2022-11-23T23:48:16.015Z,2.47
2022-11-23T23:50:48.645Z,2.40
2022-11-23T23:53:21.260Z,2.28
2022-11-23T23:55:58.291Z,1.85
2022-11-23T23:58:31.290Z,2.03
